DW4480 Assen NL current weather conditions

sailwx.info

Wind from 041 at 1 knots gusting 5

Air temperature 14.4° C
Dewpoint 8.6° C

Last reported at 2018-Oct-18 15:02 UTC.
Time now 2018-Oct-18 15:33 UTC

Location: N 53°06' E 006°24'.
View on Google Maps.

See reports from other nearby stations

  
Tides and Currents Weather Stations Pressure Air Temp Water Temp Dewpoint Dewpoint Depression Visibility Wind Speed Wind Dir Waves Ship Positions
date/time (UTC)wind fromknots sea level pressurealtimeterstation pressurevisibilityair tempwater tempwave heightnotes
2018-Oct-18 15:02 041 1 gusting 5 14.4
2018-Oct-18 14:46 036 14.4
2018-Oct-18 14:31 360 1 gusting 5 14.4
2018-Oct-18 14:16 360 14.4
2018-Oct-18 14:01 360 15.0
2018-Oct-18 13:46 360 0 gusting 10 15.0
2018-Oct-18 13:31 060 0 gusting 6 15.6
2018-Oct-18 13:16 015 15.6
2018-Oct-18 13:01 085 15.0
2018-Oct-18 12:46 053 0 gusting 6 15.6
2018-Oct-18 12:31 360 15.0
2018-Oct-18 12:16 005 0 gusting 11 15.0
2018-Oct-18 12:00 038 1 gusting 9 15.6
2018-Oct-18 11:45 065 0 gusting 3 15.6
2018-Oct-18 11:31 024 5 gusting 11 14.4
2018-Oct-18 11:15 030 5 gusting 11 14.4
2018-Oct-18 11:00 026 6 gusting 12 14.4
2018-Oct-18 10:45 360 7 gusting 13 14.4
2018-Oct-18 10:30 049 5 gusting 10 14.4
2018-Oct-18 10:15 360 7 gusting 13 13.9
2018-Oct-18 10:00 030 3 gusting 9 13.9
2018-Oct-18 09:46 360 6 gusting 12 13.9
2018-Oct-18 09:30 360 4 gusting 10 13.3
2018-Oct-18 09:15 360 6 gusting 13 13.9
2018-Oct-18 09:00 019 6 gusting 12 13.9
2018-Oct-18 08:45 061 6 gusting 13 13.3
2018-Oct-18 08:30 015 3 gusting 5 12.8
2018-Oct-18 08:15 013 4 gusting 7 12.2
2018-Oct-18 08:00 037 5 gusting 8 12.2
2018-Oct-18 07:45 036 5 gusting 8 12.2
2018-Oct-18 07:30 020 5 gusting 8 11.7
2018-Oct-18 07:16 016 4 gusting 8 11.7
2018-Oct-18 07:01 028 4 gusting 6 11.1
2018-Oct-18 06:45 025 3 gusting 6 11.1
2018-Oct-18 06:30 009 2 gusting 6 11.1
2018-Oct-18 06:15 019 2 gusting 5 11.7
2018-Oct-18 06:00 013 3 gusting 5 11.7
2018-Oct-18 05:45 030 2 gusting 6 11.7
2018-Oct-18 05:30 026 2 gusting 6 12.2
2018-Oct-18 05:15 013 3 gusting 6 12.2
2018-Oct-18 05:00 015 1 gusting 4 12.2
2018-Oct-18 04:45 019 2 gusting 5 12.2
2018-Oct-18 04:30 023 3 gusting 5 12.8
2018-Oct-18 04:15 355 1 gusting 4 12.8
2018-Oct-18 04:00 016 2 gusting 6 12.8
2018-Oct-18 03:45 029 3 gusting 6 12.8
2018-Oct-18 03:30 005 2 gusting 6 12.8
2018-Oct-18 03:16 010 2 gusting 4 12.8
2018-Oct-18 03:01 360 3 gusting 5 12.8
2018-Oct-18 02:46 019 4 gusting 7 12.8
2018-Oct-18 02:32 009 1 gusting 5 12.8
2018-Oct-18 02:18 351 2 gusting 4 12.8
2018-Oct-18 02:01 360 12.8
2018-Oct-18 01:46 360 12.2
2018-Oct-18 01:32 360 11.7
2018-Oct-18 01:16 360 11.1
2018-Oct-18 01:01 360 11.1
2018-Oct-18 00:46 360 10.6
2018-Oct-18 00:31 360 10.6
2018-Oct-17 23:01 360 10.0
2018-Oct-17 22:46 360 10.0
2018-Oct-17 22:31 360 10.6
2018-Oct-17 22:17 360 10.6
2018-Oct-17 22:01 360 10.6
2018-Oct-17 21:46 360 10.6
2018-Oct-17 21:31 360 10.6
2018-Oct-17 21:16 360 10.6
2018-Oct-17 21:02 360 10.6
2018-Oct-17 20:46 360 11.1
2018-Oct-17 20:31 360 11.1
2018-Oct-17 20:16 360 11.1
2018-Oct-17 20:01 360 11.7
2018-Oct-17 19:46 360 12.2
2018-Oct-17 19:31 360 12.2
2018-Oct-17 19:16 360 0 gusting 2 12.8
2018-Oct-17 19:00 360 12.8
2018-Oct-17 18:46 360 12.8
2018-Oct-17 18:30 360 0 gusting 2 13.3
2018-Oct-17 18:15 360 0 gusting 3 13.3
2018-Oct-17 18:01 012 0 gusting 3 13.9
2018-Oct-17 17:46 313 14.4
2018-Oct-17 17:31 313 15.0
2018-Oct-17 17:15 311 15.0
2018-Oct-17 17:00 350 1 gusting 3 15.6
2018-Oct-17 16:45 360 15.6
2018-Oct-17 16:30 014 1 gusting 3 16.1
2018-Oct-17 16:15 355 2 gusting 4 16.1
2018-Oct-17 16:00 303 1 gusting 6 16.1
2018-Oct-17 15:45 344 16.1
2018-Oct-17 15:31 350 0 gusting 5 16.1
2018-Oct-17 15:16 329 2 gusting 7 16.7
2018-Oct-17 15:00 005 1 gusting 7 17.2
2018-Oct-17 14:46 355 2 gusting 7 17.2
2018-Oct-17 14:30 355 3 gusting 8 17.2
2018-Oct-17 14:15 321 4 gusting 8 17.8
2018-Oct-17 14:00 019 3 gusting 7 17.8
2018-Oct-17 13:45 300 0 gusting 6 17.8
2018-Oct-17 13:30 013 3 gusting 7 18.9
2018-Oct-17 13:15 360 1 gusting 6 18.9
2018-Oct-17 13:00 360 2 gusting 6 18.3
2018-Oct-17 12:45 279 1 gusting 5 18.3
2018-Oct-17 12:30 277 3 gusting 8 19.4
2018-Oct-17 12:15 285 3 gusting 7 18.9
2018-Oct-17 12:00 300 5 gusting 9 18.9
2018-Oct-17 11:45 261 2 gusting 7 18.3
2018-Oct-17 11:31 360 2 gusting 6 18.3
2018-Oct-17 11:17 360 0 gusting 6 18.3
2018-Oct-17 11:01 360 2 gusting 6 17.8
2018-Oct-17 10:46 360 1 gusting 6 17.8
2018-Oct-17 10:32 360 3 gusting 6 17.2
2018-Oct-17 10:19 360 2 gusting 6 17.2
2018-Oct-17 10:01 360 1 gusting 6 17.2
2018-Oct-17 09:46 360 2 gusting 6 16.7
2018-Oct-17 09:31 360 2 gusting 4 16.7
2018-Oct-17 09:16 360 0 gusting 4 16.1
2018-Oct-17 09:01 360 1 gusting 5 15.6
2018-Oct-17 08:46 360 3 gusting 6 15.6
2018-Oct-17 08:32 360 1 gusting 4 14.4
2018-Oct-17 08:16 360 2 gusting 5 13.9
2018-Oct-17 08:01 217 1 gusting 3 12.8
2018-Oct-17 07:45 204 1 gusting 4 12.2
2018-Oct-17 07:30 218 1 gusting 3 11.1
2018-Oct-17 07:15 360 10.6
2018-Oct-17 07:00 211 10.6
2018-Oct-17 06:45 211 10.6
2018-Oct-17 06:30 360 11.1
2018-Oct-17 06:15 360 11.1
2018-Oct-17 06:00 360 0 gusting 3 11.7
2018-Oct-17 05:45 360 11.7
2018-Oct-17 05:30 360 1 gusting 3 12.2
2018-Oct-17 05:15 360 1 gusting 3 12.8
2018-Oct-17 05:00 360 1 gusting 3 12.8
2018-Oct-17 04:45 360 1 gusting 3 12.8
2018-Oct-17 04:30 360 1 gusting 3 12.8
2018-Oct-17 04:15 360 0 gusting 1 12.8
2018-Oct-17 03:45 360 12.8
2018-Oct-17 03:30 360 1 gusting 3 13.3
2018-Oct-17 03:15 360 1 gusting 3 13.3
2018-Oct-17 03:00 360 13.3
2018-Oct-17 02:45 360 0 gusting 2 13.9
2018-Oct-17 02:16 184 1 gusting 3 14.4
2018-Oct-17 02:02 187 1 gusting 3 15.0
2018-Oct-17 01:46 213 1 gusting 6 15.6
2018-Oct-17 01:32 194 2 gusting 5 15.6
2018-Oct-17 01:16 360 2 gusting 6 15.6
2018-Oct-17 01:01 360 1 gusting 4 15.6
2018-Oct-17 00:46 192 2 gusting 6 15.6
2018-Oct-17 00:31 360 2 gusting 4 16.1
2018-Oct-17 00:16 360 2 gusting 6 16.1
2018-Oct-17 00:01 360 2 gusting 5 16.1
2018-Oct-16 23:46 360 2 gusting 6 16.7
2018-Oct-16 23:30 360 2 gusting 5 16.7
2018-Oct-16 23:00 360 2 gusting 4 16.7
2018-Oct-16 22:46 184 1 gusting 3 16.7
2018-Oct-16 22:31 219 1 gusting 3 16.7
2018-Oct-16 22:15 192 2 gusting 4 16.7
2018-Oct-16 22:01 212 1 gusting 4 16.7
2018-Oct-16 21:46 185 1 gusting 5 16.7
2018-Oct-16 21:31 360 1 gusting 5 16.1
2018-Oct-16 21:15 360 1 gusting 4 15.6
2018-Oct-16 21:00 360 15.6
2018-Oct-16 20:45 360 2 gusting 4 14.4
2018-Oct-16 20:30 360 13.3
2018-Oct-16 20:15 360 12.8
2018-Oct-16 20:00 360 12.8
2018-Oct-16 19:45 360 13.3
2018-Oct-16 19:30 200 13.3
2018-Oct-16 19:15 200 13.9
2018-Oct-16 19:00 200 13.9
2018-Oct-16 18:45 360 14.4
2018-Oct-16 18:31 360 15.0
2018-Oct-16 18:15 360 15.6
2018-Oct-16 18:00 360 15.6
2018-Oct-16 17:45 360 16.1
2018-Oct-16 17:30 360 16.7
2018-Oct-16 17:15 360 17.8
2018-Oct-16 17:00 360 18.3
2018-Oct-16 16:45 360 19.4
2018-Oct-16 16:15 360 21.1
2018-Oct-16 16:00 200 0 gusting 2 21.7
2018-Oct-16 15:45 200 0 gusting 2 22.2
2018-Oct-16 15:30 200 0 gusting 3 22.2
2018-Oct-16 15:15 206 0 gusting 3 22.8
2018-Oct-16 15:00 215 1 gusting 4 23.3